createdAt,value
2023-03-26T00:01:40.708Z,100049.48
2023-03-26T00:04:09.423Z,100049.77
2023-03-26T00:06:40.116Z,100055.70
2023-03-26T00:09:10.496Z,100059.79
2023-03-26T00:11:38.876Z,100054.97
2023-03-26T00:14:07.242Z,100049.45
2023-03-26T00:16:36.516Z,100047.25
2023-03-26T00:19:04.828Z,100042.36
2023-03-26T00:21:33.204Z,100043.36
2023-03-26T00:24:04.909Z,100046.95
2023-03-26T00:26:34.677Z,100041.95
2023-03-26T00:29:04.362Z,100041.52
2023-03-26T00:31:33.784Z,100043.70
2023-03-26T00:34:04.108Z,100045.14
2023-03-26T00:36:36.252Z,100045.75
2023-03-26T00:39:05.935Z,100049.17
2023-03-26T00:41:37.463Z,100045.38
2023-03-26T00:44:06.133Z,100040.67
2023-03-26T00:46:34.544Z,100047.04
2023-03-26T00:49:04.324Z,100042.61
2023-03-26T00:51:34.293Z,100048.97
2023-03-26T00:54:02.716Z,100044.27
2023-03-26T00:56:31.877Z,100037.27
2023-03-26T00:59:00.601Z,100035.92
2023-03-26T01:01:30.792Z,100030.08
2023-03-26T01:04:19.746Z,100034.41
2023-03-26T01:06:48.267Z,100030.69
2023-03-26T01:09:19.212Z,100030.52
2023-03-26T01:11:48.926Z,100033.10
2023-03-26T01:14:20.054Z,100036.61
2023-03-26T01:16:58.477Z,100035.70
2023-03-26T01:19:38.475Z,100029.30
2023-03-26T01:22:12.255Z,100030.30
2023-03-26T01:24:41.719Z,100032.75
2023-03-26T01:27:36.446Z,100038.17
2023-03-26T01:30:18.461Z,100045.17
2023-03-26T01:32:49.726Z,100040.92
2023-03-26T01:35:37.047Z,100037.72
2023-03-26T01:38:18.803Z,100035.91
2023-03-26T01:41:10.429Z,100032.19
2023-03-26T01:43:53.045Z,100025.92
2023-03-26T01:46:23.193Z,100028.61
2023-03-26T01:48:52.271Z,100023.43
2023-03-26T01:51:33.079Z,100020.69
2023-03-26T01:54:07.455Z,100026.73
2023-03-26T01:56:47.845Z,100035.56
2023-03-26T01:59:57.558Z,100039.16
2023-03-26T02:02:36.113Z,100041.45
2023-03-26T02:05:11.031Z,100048.09
2023-03-26T02:07:48.119Z,100042.77
2023-03-26T02:10:37.662Z,100045.48
2023-03-26T02:13:06.452Z,100044.43
2023-03-26T02:15:34.931Z,100045.18
2023-03-26T02:18:04.276Z,100046.80
2023-03-26T02:20:34.286Z,100049.58
2023-03-26T02:23:02.637Z,100044.36
2023-03-26T02:25:31.215Z,100049.39
2023-03-26T02:27:59.620Z,100046.92
2023-03-26T02:30:30.000Z,100043.85
2023-03-26T02:32:59.616Z,100043.55
2023-03-26T02:35:28.206Z,100054.39
2023-03-26T02:37:57.114Z,100054.13
2023-03-26T02:40:25.587Z,100056.84
2023-03-26T02:42:53.972Z,100056.59
2023-03-26T02:45:22.446Z,100056.27
2023-03-26T02:47:51.306Z,100057.52
2023-03-26T02:50:19.716Z,100053.55
2023-03-26T02:52:50.166Z,100054.59
2023-03-26T02:55:18.630Z,100055.37
2023-03-26T02:57:47.008Z,100053.16
2023-03-26T03:00:16.653Z,100051.23
2023-03-26T03:02:48.422Z,100049.20
2023-03-26T03:05:18.748Z,100050.30
2023-03-26T03:07:47.283Z,100053.83
2023-03-26T03:10:15.892Z,100058.31
2023-03-26T03:12:44.150Z,100063.69
2023-03-26T03:15:13.347Z,100061.33
2023-03-26T03:17:41.981Z,100060.84
2023-03-26T03:20:11.578Z,100065.48
2023-03-26T03:22:40.984Z,100065.61
2023-03-26T03:25:14.529Z,100070.38
2023-03-26T03:27:43.144Z,100073.73
2023-03-26T03:30:13.538Z,100075.92
2023-03-26T03:32:41.996Z,100075.95
2023-03-26T03:35:10.941Z,100076.85
2023-03-26T03:37:39.412Z,100078.30
2023-03-26T03:40:11.169Z,100077.30
2023-03-26T03:42:39.653Z,100073.96
2023-03-26T03:45:08.854Z,100072.65
2023-03-26T03:47:37.169Z,100073.45
2023-03-26T03:50:06.835Z,100074.86
2023-03-26T03:52:35.417Z,100074.18
2023-03-26T03:55:04.021Z,100075.30
2023-03-26T03:57:34.078Z,100075.77
2023-03-26T04:00:04.056Z,100076.78
2023-03-26T04:02:35.282Z,100077.80
2023-03-26T04:05:05.834Z,100083.95
2023-03-26T04:07:34.194Z,100077.39
2023-03-26T04:10:05.554Z,100075.87
2023-03-26T04:12:34.025Z,100077.11
2023-03-26T04:15:02.615Z,100078.84
2023-03-26T04:17:31.060Z,100087.30
2023-03-26T04:20:10.949Z,100088.84
2023-03-26T04:22:41.364Z,100095.92
2023-03-26T04:25:10.795Z,100096.63
2023-03-26T04:27:41.900Z,100098.83
2023-03-26T04:30:16.091Z,100101.53
2023-03-26T04:32:46.160Z,100104.81
2023-03-26T04:35:16.952Z,100110.15
2023-03-26T04:37:46.216Z,100112.88
2023-03-26T04:40:17.484Z,100117.63
2023-03-26T04:42:46.590Z,100120.20
2023-03-26T04:45:17.887Z,100119.58
2023-03-26T04:47:46.862Z,100117.30
2023-03-26T04:50:15.862Z,100114.17
2023-03-26T04:52:45.264Z,100117.25
2023-03-26T04:55:42.424Z,100117.14
2023-03-26T04:58:14.280Z,100123.16
2023-03-26T05:00:43.492Z,100125.52
2023-03-26T05:03:12.577Z,100129.30
2023-03-26T05:05:41.462Z,100127.95
2023-03-26T05:08:10.262Z,100131.55
2023-03-26T05:10:38.532Z,100128.44
2023-03-26T05:13:06.913Z,100127.35
2023-03-26T05:15:35.701Z,100121.59
2023-03-26T05:18:04.585Z,100127.56
2023-03-26T05:20:33.203Z,100129.89
2023-03-26T05:23:01.553Z,100133.74
2023-03-26T05:25:30.752Z,100138.52
2023-03-26T05:27:59.026Z,100140.52
2023-03-26T05:30:27.827Z,100145.94
2023-03-26T05:32:56.980Z,100151.69
2023-03-26T05:35:25.943Z,100149.78
2023-03-26T05:37:54.393Z,100153.32
2023-03-26T05:40:23.081Z,100152.59
2023-03-26T05:42:51.668Z,100153.30
2023-03-26T05:45:20.243Z,100154.90
2023-03-26T05:47:50.077Z,100159.33
2023-03-26T05:50:18.438Z,100157.13
2023-03-26T05:52:47.027Z,100161.93
2023-03-26T05:55:16.278Z,100163.33
2023-03-26T05:57:44.599Z,100167.52
2023-03-26T06:00:13.706Z,100172.14
2023-03-26T06:02:43.161Z,100173.46
2023-03-26T06:05:12.716Z,100176.32
2023-03-26T06:07:40.986Z,100180.28
2023-03-26T06:10:10.285Z,100186.96
2023-03-26T06:12:38.561Z,100192.39
2023-03-26T06:15:08.781Z,100192.23
2023-03-26T06:17:37.081Z,100197.16
2023-03-26T06:20:09.381Z,100198.80
2023-03-26T06:22:37.915Z,100201.95
2023-03-26T06:25:06.999Z,100205.78
2023-03-26T06:27:35.400Z,100206.61
2023-03-26T06:30:04.288Z,100209.38
2023-03-26T06:32:32.606Z,100210.27
2023-03-26T06:35:01.147Z,100207.99
2023-03-26T06:37:29.702Z,100210.39
2023-03-26T06:39:58.426Z,100211.98
2023-03-26T06:43:06.672Z,100217.95
2023-03-26T06:45:15.660Z,100221.70
2023-03-26T06:47:43.975Z,100223.17
2023-03-26T06:50:12.420Z,100222.76
2023-03-26T06:52:41.011Z,100226.39
2023-03-26T06:55:10.718Z,100232.33
2023-03-26T06:57:38.984Z,100247.48
2023-03-26T07:00:08.908Z,100254.50
2023-03-26T07:02:37.430Z,100257.84
2023-03-26T07:05:06.494Z,100258.23
2023-03-26T07:07:35.065Z,100265.68
2023-03-26T07:10:14.847Z,100265.05
2023-03-26T07:12:43.192Z,100263.85
2023-03-26T07:15:11.912Z,100266.42
2023-03-26T07:17:40.268Z,100271.36
2023-03-26T07:20:09.557Z,100273.89
2023-03-26T07:22:38.450Z,100273.61
2023-03-26T07:25:07.966Z,100276.66
2023-03-26T07:27:47.505Z,100282.67
2023-03-26T07:30:20.697Z,100285.96
2023-03-26T07:33:15.194Z,100291.21
2023-03-26T07:35:49.530Z,100298.48
2023-03-26T07:38:47.880Z,100298.54
2023-03-26T07:41:37.588Z,100300.41
2023-03-26T07:44:14.974Z,100312.28
2023-03-26T07:46:43.946Z,100315.35
2023-03-26T07:49:13.771Z,100316.03
2023-03-26T07:51:42.853Z,100318.26
2023-03-26T07:54:11.951Z,100320.28
2023-03-26T07:56:54.553Z,100325.64
2023-03-26T07:59:31.668Z,100330.46
2023-03-26T08:02:30.870Z,100336.02
2023-03-26T08:05:04.959Z,100340.27
2023-03-26T08:07:36.307Z,100341.85
2023-03-26T08:10:10.736Z,100342.77
2023-03-26T08:13:12.494Z,100342.84
2023-03-26T08:15:58.405Z,100350.05
2023-03-26T08:18:51.026Z,100348.26
2023-03-26T08:21:21.455Z,100354.48
2023-03-26T08:24:00.840Z,100358.66
2023-03-26T08:26:51.711Z,100363.61
2023-03-26T08:29:33.088Z,100363.89
2023-03-26T08:32:02.389Z,100374.75
2023-03-26T08:34:30.973Z,100376.77
2023-03-26T08:36:59.242Z,100381.10
2023-03-26T08:39:27.625Z,100383.02
2023-03-26T08:42:01.842Z,100389.71
2023-03-26T08:44:55.101Z,100392.60
2023-03-26T08:47:41.237Z,100396.15
2023-03-26T08:50:33.746Z,100397.08
2023-03-26T08:53:14.308Z,100395.85
2023-03-26T08:55:48.533Z,100399.70
2023-03-26T08:58:55.207Z,100396.38
2023-03-26T09:02:17.555Z,100401.45
2023-03-26T09:05:01.802Z,100398.54
2023-03-26T09:07:41.659Z,100399.34
2023-03-26T09:10:34.500Z,100399.36
2023-03-26T09:13:24.690Z,100393.23
2023-03-26T09:15:59.167Z,100390.02
2023-03-26T09:18:42.236Z,100390.33
2023-03-26T09:21:28.027Z,100387.73
2023-03-26T09:24:22.934Z,100383.22
2023-03-26T09:27:06.462Z,100381.64
2023-03-26T09:29:49.399Z,100386.12
2023-03-26T09:32:29.594Z,100381.32
2023-03-26T09:35:16.611Z,100380.16
2023-03-26T09:37:58.491Z,100375.28
2023-03-26T09:40:34.930Z,100373.39
2023-03-26T09:43:36.543Z,100371.72
2023-03-26T09:46:13.510Z,100372.95
2023-03-26T09:48:45.954Z,100370.57
2023-03-26T09:51:51.802Z,100370.35
2023-03-26T09:54:44.753Z,100374.10
2023-03-26T09:57:19.288Z,100375.58
2023-03-26T10:00:11.313Z,100357.66
2023-03-26T10:02:59.400Z,100372.41
2023-03-26T10:05:55.481Z,100364.70
2023-03-26T10:08:28.826Z,100359.91
2023-03-26T10:11:46.512Z,100351.23
2023-03-26T10:14:23.800Z,100342.88
2023-03-26T10:17:05.301Z,100335.60
2023-03-26T10:19:48.950Z,100327.98
2023-03-26T10:22:20.373Z,100322.85
2023-03-26T10:25:15.585Z,100317.55
2023-03-26T10:27:52.870Z,100315.71
2023-03-26T10:30:24.327Z,100316.13
2023-03-26T10:33:11.408Z,100313.55
2023-03-26T10:35:45.653Z,100313.52
2023-03-26T10:38:19.154Z,100322.67
2023-03-26T10:41:04.837Z,100330.11
2023-03-26T10:43:57.873Z,100335.92
2023-03-26T10:47:08.813Z,100342.16
2023-03-26T10:49:49.436Z,100335.55
2023-03-26T10:52:35.641Z,100334.48
2023-03-26T10:55:15.066Z,100329.95
2023-03-26T10:57:51.531Z,100330.55
2023-03-26T11:00:25.795Z,100332.96
2023-03-26T11:06:33.178Z,100326.16
2023-03-26T11:13:22.474Z,100325.09
2023-03-26T11:15:50.765Z,100322.40
2023-03-26T11:18:29.222Z,100316.83
2023-03-26T11:21:19.754Z,100313.80
2023-03-26T11:24:04.932Z,100309.75
2023-03-26T11:26:55.985Z,100309.89
2023-03-26T11:29:52.196Z,100305.87
2023-03-26T11:32:31.683Z,100301.15
2023-03-26T11:35:06.036Z,100298.25
2023-03-26T11:37:51.333Z,100299.29
2023-03-26T11:40:24.611Z,100298.23
2023-03-26T11:42:58.958Z,100297.05
2023-03-26T11:45:31.011Z,100297.14
2023-03-26T11:48:17.260Z,100291.33
2023-03-26T11:50:49.494Z,100287.55
2023-03-26T11:53:20.860Z,100282.04
2023-03-26T11:56:02.711Z,100281.02
2023-03-26T11:59:01.517Z,100275.09
2023-03-26T12:01:52.665Z,100275.20
2023-03-26T12:04:35.349Z,100273.58
2023-03-26T12:07:23.285Z,100269.42
2023-03-26T12:09:57.097Z,100262.22
2023-03-26T12:12:46.953Z,100254.79
2023-03-26T12:15:17.325Z,100248.54
2023-03-26T12:17:48.052Z,100248.14
2023-03-26T12:20:33.092Z,100249.66
2023-03-26T12:23:04.430Z,100248.08
2023-03-26T12:25:35.513Z,100248.05
2023-03-26T12:28:20.468Z,100245.94
2023-03-26T12:31:05.311Z,100239.13
2023-03-26T12:33:35.501Z,100243.88
2023-03-26T12:36:36.169Z,100246.36
2023-03-26T12:40:09.584Z,100239.77
2023-03-26T12:43:40.482Z,100231.79
2023-03-26T12:45:14.828Z,100224.70
2023-03-26T12:47:59.994Z,100221.38
2023-03-26T12:50:51.533Z,100226.77
2023-03-26T12:53:54.431Z,100225.72
2023-03-26T12:56:37.199Z,100222.77
2023-03-26T12:59:20.251Z,100221.09
2023-03-26T13:01:55.858Z,100212.08
2023-03-26T13:05:04.989Z,100210.29
2023-03-26T13:08:07.857Z,100207.42
2023-03-26T13:10:56.116Z,100204.92
2023-03-26T13:13:33.771Z,100201.77
2023-03-26T13:16:10.341Z,100201.81
2023-03-26T13:18:48.555Z,100201.25
2023-03-26T13:21:22.562Z,100197.41
2023-03-26T13:24:03.434Z,100199.16
2023-03-26T13:26:40.613Z,100195.71
2023-03-26T13:29:19.270Z,100193.13
2023-03-26T13:32:25.740Z,100194.20
2023-03-26T13:35:00.142Z,100194.16
2023-03-26T13:37:40.700Z,100187.00
2023-03-26T13:40:41.657Z,100188.77
2023-03-26T13:43:35.933Z,100187.30
2023-03-26T13:46:23.203Z,100188.84
2023-03-26T13:48:56.663Z,100191.19
2023-03-26T13:51:39.089Z,100186.52
2023-03-26T13:54:19.421Z,100181.53
2023-03-26T13:56:51.111Z,100178.02
2023-03-26T13:59:32.770Z,100175.56
2023-03-26T14:02:08.280Z,100178.52
2023-03-26T14:04:44.563Z,100178.04
2023-03-26T14:07:16.100Z,100178.13
2023-03-26T14:09:52.812Z,100178.79
2023-03-26T14:12:51.599Z,100176.61
2023-03-26T14:15:31.551Z,100180.42
2023-03-26T14:18:24.403Z,100185.27
2023-03-26T14:21:02.302Z,100184.21
2023-03-26T14:24:08.267Z,100182.23
2023-03-26T14:27:15.268Z,100180.73
2023-03-26T14:30:18.140Z,100181.31
2023-03-26T14:33:11.408Z,100181.84
2023-03-26T14:36:01.026Z,100181.39
2023-03-26T14:39:00.585Z,100180.20
2023-03-26T14:41:37.978Z,100178.44
2023-03-26T14:44:48.363Z,100180.69
2023-03-26T14:47:21.722Z,100182.95
2023-03-26T14:50:21.865Z,100181.84
2023-03-26T14:52:52.497Z,100180.48
2023-03-26T14:55:56.920Z,100178.15
2023-03-26T14:58:56.363Z,100180.52
2023-03-26T15:01:44.117Z,100180.35
2023-03-26T15:04:37.365Z,100182.80
2023-03-26T15:07:43.083Z,100184.61
2023-03-26T15:10:23.135Z,100182.65
2023-03-26T15:13:04.014Z,100182.20
2023-03-26T15:15:54.885Z,100179.54
2023-03-26T15:18:23.704Z,100178.60
2023-03-26T15:21:14.012Z,100176.55
2023-03-26T15:24:03.685Z,100174.40
2023-03-26T15:26:53.352Z,100169.59
2023-03-26T15:29:52.855Z,100171.52
2023-03-26T15:32:42.677Z,100174.34
2023-03-26T15:35:38.322Z,100172.44
2023-03-26T15:38:27.328Z,100174.98
2023-03-26T15:41:11.174Z,100175.85
2023-03-26T15:44:23.139Z,100178.11
2023-03-26T15:47:18.390Z,100180.05
2023-03-26T15:50:36.524Z,100179.92
2023-03-26T15:53:33.885Z,100183.77
2023-03-26T15:56:33.220Z,100182.41
2023-03-26T15:59:31.247Z,100178.61
2023-03-26T16:02:11.545Z,100178.99
2023-03-26T16:04:52.626Z,100174.86
2023-03-26T16:07:29.382Z,100174.48
2023-03-26T16:10:09.838Z,100173.37
2023-03-26T16:12:47.944Z,100173.91
2023-03-26T16:15:33.859Z,100177.45
2023-03-26T16:18:12.676Z,100183.98
2023-03-26T16:20:47.537Z,100192.55
2023-03-26T16:23:47.687Z,100192.81
2023-03-26T16:26:23.572Z,100197.09
2023-03-26T16:28:55.329Z,100206.71
2023-03-26T16:31:38.179Z,100211.41
2023-03-26T16:34:10.966Z,100214.09
2023-03-26T16:36:44.738Z,100216.00
2023-03-26T16:39:20.246Z,100213.58
2023-03-26T16:41:50.503Z,100211.56
2023-03-26T16:44:35.168Z,100216.79
2023-03-26T16:47:06.412Z,100221.09
2023-03-26T16:50:09.023Z,100225.71
2023-03-26T16:52:52.206Z,100229.90
2023-03-26T16:55:26.645Z,100233.91
2023-03-26T16:58:14.479Z,100240.20
2023-03-26T17:00:48.250Z,100240.58
2023-03-26T17:03:28.499Z,100242.98
2023-03-26T17:05:57.051Z,100245.86
2023-03-26T17:08:47.012Z,100247.52
2023-03-26T17:11:27.072Z,100248.08
2023-03-26T17:14:06.401Z,100251.73
2023-03-26T17:16:46.145Z,100255.58
2023-03-26T17:19:17.647Z,100257.76
2023-03-26T17:22:11.754Z,100262.30
2023-03-26T17:24:52.267Z,100272.69
2023-03-26T17:27:46.148Z,100289.11
2023-03-26T17:30:33.155Z,100297.98
2023-03-26T17:33:06.232Z,100307.32
2023-03-26T17:35:40.577Z,100310.09
2023-03-26T17:38:18.057Z,100315.44
2023-03-26T17:40:51.662Z,100321.47
2023-03-26T17:43:44.600Z,100324.63
2023-03-26T17:46:15.962Z,100330.88
2023-03-26T17:48:47.409Z,100329.45
2023-03-26T17:51:46.844Z,100330.83
2023-03-26T17:54:33.233Z,100330.11
2023-03-26T17:57:29.662Z,100328.75
2023-03-26T17:59:59.677Z,100332.23
2023-03-26T18:03:11.597Z,100336.40
2023-03-26T18:05:40.773Z,100336.79
2023-03-26T18:08:12.219Z,100339.07
2023-03-26T18:11:12.643Z,100340.38
2023-03-26T18:14:03.294Z,100335.33
2023-03-26T18:16:52.308Z,100335.69
2023-03-26T18:19:23.351Z,100339.92
2023-03-26T18:21:54.293Z,100340.00
2023-03-26T18:24:30.277Z,100336.70
2023-03-26T18:27:03.282Z,100335.45
2023-03-26T18:29:35.573Z,100332.58
2023-03-26T18:32:10.271Z,100329.62
2023-03-26T18:34:46.088Z,100326.45
2023-03-26T18:37:19.746Z,100325.89
2023-03-26T18:39:59.593Z,100328.42
2023-03-26T18:42:29.963Z,100327.73
2023-03-26T18:44:59.923Z,100324.63
2023-03-26T18:47:32.009Z,100327.27
2023-03-26T18:50:00.634Z,100337.92
2023-03-26T18:52:30.645Z,100338.10
2023-03-26T18:54:59.921Z,100335.23
2023-03-26T18:57:29.684Z,100336.73
2023-03-26T19:00:18.826Z,100332.53
2023-03-26T19:02:50.355Z,100328.30
2023-03-26T19:05:20.402Z,100331.23
2023-03-26T19:07:49.284Z,100340.09
2023-03-26T19:10:21.566Z,100343.65
2023-03-26T19:12:57.823Z,100339.09
2023-03-26T19:15:28.514Z,100338.44
2023-03-26T19:18:04.137Z,100335.30
2023-03-26T19:20:58.312Z,100328.45
2023-03-26T19:23:32.504Z,100327.66
2023-03-26T19:26:04.315Z,100330.05
2023-03-26T19:28:35.910Z,100334.71
2023-03-26T19:31:17.463Z,100336.65
2023-03-26T19:33:47.011Z,100336.42
2023-03-26T19:36:18.566Z,100336.85
2023-03-26T19:38:55.274Z,100334.27
2023-03-26T19:41:26.688Z,100333.27
2023-03-26T19:43:58.266Z,100327.48
2023-03-26T19:46:29.026Z,100324.06
2023-03-26T19:48:58.402Z,100325.90
2023-03-26T19:51:37.418Z,100334.25
2023-03-26T19:54:16.261Z,100334.08
2023-03-26T19:56:44.702Z,100335.21
2023-03-26T19:59:14.438Z,100332.19
2023-03-26T20:01:42.784Z,100334.10
2023-03-26T20:04:12.635Z,100336.63
2023-03-26T20:06:44.094Z,100339.42
2023-03-26T20:09:13.727Z,100338.63
2023-03-26T20:11:42.598Z,100338.80
2023-03-26T20:14:17.294Z,100343.00
2023-03-26T20:16:46.451Z,100349.95
2023-03-26T20:19:15.454Z,100353.63
2023-03-26T20:21:45.120Z,100355.83
2023-03-26T20:24:16.134Z,100354.80
2023-03-26T20:26:46.097Z,100352.92
2023-03-26T20:29:15.378Z,100350.48
2023-03-26T20:31:44.042Z,100347.54
2023-03-26T20:34:23.911Z,100345.09
2023-03-26T20:36:55.641Z,100349.39
2023-03-26T20:39:25.272Z,100352.73
2023-03-26T20:41:54.678Z,100354.62
2023-03-26T20:44:23.455Z,100353.67
2023-03-26T20:46:52.695Z,100351.09
2023-03-26T20:49:22.570Z,100348.14
2023-03-26T20:51:51.353Z,100345.40
2023-03-26T20:54:22.197Z,100346.42
2023-03-26T20:56:51.173Z,100344.83
2023-03-26T20:59:26.863Z,100343.73
2023-03-26T21:01:57.499Z,100340.38
2023-03-26T21:04:27.831Z,100334.68
2023-03-26T21:07:07.244Z,100330.70
2023-03-26T21:09:40.437Z,100331.23
2023-03-26T21:12:24.589Z,100332.62
2023-03-26T21:14:55.979Z,100338.23
2023-03-26T21:17:25.177Z,100336.70
2023-03-26T21:19:54.219Z,100332.35
2023-03-26T21:23:10.153Z,100329.16
2023-03-26T21:26:12.323Z,100336.48
2023-03-26T21:28:50.291Z,100334.55
2023-03-26T21:31:21.687Z,100329.55
2023-03-26T21:33:52.117Z,100324.84
2023-03-26T21:36:21.045Z,100325.43
2023-03-26T21:38:54.970Z,100325.46
2023-03-26T21:41:44.120Z,100320.06
2023-03-26T21:44:14.467Z,100316.73
2023-03-26T21:46:44.615Z,100315.55
2023-03-26T21:49:14.803Z,100312.52
2023-03-26T21:51:44.206Z,100310.73
2023-03-26T21:54:26.322Z,100308.27
2023-03-26T21:57:13.426Z,100305.41
2023-03-26T22:00:11.493Z,100302.63
2023-03-26T22:02:45.439Z,100306.20
2023-03-26T22:05:19.410Z,100299.31
2023-03-26T22:07:59.343Z,100294.11
2023-03-26T22:10:28.169Z,100286.72
2023-03-26T22:12:56.383Z,100285.23
2023-03-26T22:15:26.984Z,100295.28
2023-03-26T22:17:56.047Z,100300.42
2023-03-26T22:20:25.436Z,100297.38
2023-03-26T22:22:55.445Z,100287.50
2023-03-26T22:25:24.378Z,100284.77
2023-03-26T22:27:52.962Z,100288.21
2023-03-26T22:30:22.160Z,100287.90
2023-03-26T22:32:50.515Z,100282.62
2023-03-26T22:35:19.882Z,100278.41
2023-03-26T22:37:48.743Z,100273.27
2023-03-26T22:40:18.268Z,100274.81
2023-03-26T22:42:46.929Z,100278.67
2023-03-26T22:45:15.213Z,100275.86
2023-03-26T22:47:43.630Z,100278.38
2023-03-26T22:50:12.477Z,100276.83
2023-03-26T22:52:41.504Z,100271.59
2023-03-26T22:55:11.805Z,100272.48
2023-03-26T22:57:41.557Z,100271.03
2023-03-26T23:00:19.732Z,100270.81
2023-03-26T23:02:48.129Z,100275.55
2023-03-26T23:05:20.107Z,100275.50
2023-03-26T23:07:49.356Z,100280.95
2023-03-26T23:10:18.251Z,100278.42
2023-03-26T23:12:46.624Z,100275.11
2023-03-26T23:15:15.011Z,100277.51
2023-03-26T23:17:43.445Z,100278.27
2023-03-26T23:20:15.243Z,100282.14
2023-03-26T23:22:44.378Z,100278.24
2023-03-26T23:25:12.835Z,100273.81
2023-03-26T23:27:41.627Z,100280.43
2023-03-26T23:30:11.179Z,100283.45
2023-03-26T23:32:39.527Z,100281.92
2023-03-26T23:35:08.470Z,100283.95
2023-03-26T23:37:39.132Z,100287.79
2023-03-26T23:40:10.317Z,100288.36
2023-03-26T23:42:38.862Z,100288.06
2023-03-26T23:45:08.744Z,100288.83
2023-03-26T23:47:37.596Z,100291.81
2023-03-26T23:50:06.767Z,100283.77
2023-03-26T23:52:35.055Z,100275.31
2023-03-26T23:55:04.131Z,100268.08
2023-03-26T23:57:32.315Z,100262.80
